createdAt,value
2022-11-02T00:04:02.120Z,11.35
2022-11-02T00:09:03.785Z,11.37
2022-11-02T00:14:05.334Z,11.41
2022-11-02T00:19:08.822Z,11.52
2022-11-02T00:24:12.504Z,11.61
2022-11-02T00:29:14.128Z,11.61
2022-11-02T00:34:15.631Z,11.55
2022-11-02T00:39:17.188Z,11.49
2022-11-02T00:44:18.682Z,11.51
2022-11-02T00:49:20.862Z,11.57
2022-11-02T00:54:25.960Z,11.56
2022-11-02T00:59:29.997Z,11.58
2022-11-02T01:04:31.567Z,11.52
2022-11-02T01:09:34.599Z,11.46
2022-11-02T01:14:37.702Z,11.48
2022-11-02T01:19:39.259Z,11.48
2022-11-02T01:24:40.721Z,11.48
2022-11-02T01:29:42.220Z,11.44
2022-11-02T01:34:43.823Z,11.56
2022-11-02T01:39:45.345Z,11.77
2022-11-02T01:44:47.106Z,12.01
2022-11-02T01:49:53.799Z,12.26
2022-11-02T01:55:00.210Z,12.56
2022-11-02T02:00:08.637Z,12.64
2022-11-02T02:05:11.233Z,12.61
2022-11-02T02:10:12.858Z,12.61
2022-11-02T02:15:14.789Z,12.66
2022-11-02T02:20:31.291Z,12.67
2022-11-02T02:25:38.787Z,12.74
2022-11-02T02:30:46.895Z,12.67
2022-11-02T02:36:00.816Z,12.70
2022-11-02T02:41:05.112Z,12.75
2022-11-02T02:46:13.496Z,12.82
2022-11-02T02:51:21.482Z,12.82
2022-11-02T02:56:26.320Z,12.71
2022-11-02T03:01:28.586Z,12.67
2022-11-02T03:06:33.102Z,12.65
2022-11-02T03:11:43.025Z,12.67
2022-11-02T03:16:56.183Z,12.65
2022-11-02T03:22:33.892Z,12.53
2022-11-02T03:27:40.024Z,12.42
2022-11-02T03:33:08.438Z,12.35
2022-11-02T03:38:17.944Z,12.35
2022-11-02T03:43:21.357Z,12.36
2022-11-02T03:48:27.209Z,12.31
2022-11-02T03:53:40.577Z,12.25
2022-11-02T03:58:42.161Z,12.26
2022-11-02T04:03:46.105Z,12.28
2022-11-02T04:08:49.107Z,12.31
2022-11-02T04:14:09.436Z,12.26
2022-11-02T04:19:29.393Z,12.17
2022-11-02T04:24:49.551Z,12.08
2022-11-02T04:29:51.195Z,12.05
2022-11-02T04:34:52.674Z,12.02
2022-11-02T04:39:54.090Z,12.06
2022-11-02T04:44:55.566Z,12.27
2022-11-02T04:49:57.126Z,12.50
2022-11-02T04:54:58.635Z,12.64
2022-11-02T05:00:00.214Z,12.77
2022-11-02T05:05:01.708Z,12.85
2022-11-02T05:10:03.806Z,12.91
2022-11-02T05:15:05.978Z,13.01
2022-11-02T05:20:08.707Z,13.07
2022-11-02T05:25:11.162Z,13.05
2022-11-02T05:30:14.146Z,12.98
2022-11-02T05:35:15.697Z,12.94
2022-11-02T05:40:17.207Z,12.92
2022-11-02T05:45:22.054Z,12.88
2022-11-02T05:50:26.004Z,12.85
2022-11-02T05:55:27.979Z,12.80
2022-11-02T06:00:29.589Z,12.73
2022-11-02T06:05:31.158Z,12.66
2022-11-02T06:10:32.752Z,12.68
2022-11-02T06:15:34.236Z,12.67
2022-11-02T06:20:35.835Z,12.64
2022-11-02T06:25:37.279Z,12.63
2022-11-02T06:30:38.739Z,12.59
2022-11-02T06:35:40.275Z,12.60
2022-11-02T06:40:42.064Z,12.61
2022-11-02T06:45:43.634Z,12.59
2022-11-02T06:50:45.178Z,12.59
2022-11-02T06:55:52.850Z,12.57
2022-11-02T07:00:59.647Z,12.64
2022-11-02T07:06:01.689Z,12.78
2022-11-02T07:11:03.608Z,12.93
2022-11-02T07:16:05.309Z,13.12
2022-11-02T07:21:07.134Z,13.31
2022-11-02T07:26:08.646Z,13.45
2022-11-02T07:31:10.160Z,13.55
2022-11-02T07:36:11.727Z,13.60
2022-11-02T07:41:14.377Z,13.62
2022-11-02T07:46:15.963Z,13.65
2022-11-02T07:51:17.422Z,13.75
2022-11-02T07:56:20.087Z,13.98
2022-11-02T08:01:21.653Z,14.14
2022-11-02T08:06:23.203Z,14.18
2022-11-02T08:11:25.164Z,14.17
2022-11-02T08:16:26.734Z,14.22
2022-11-02T08:21:28.202Z,14.37
2022-11-02T08:26:29.688Z,14.41
2022-11-02T08:31:31.163Z,14.53
2022-11-02T08:36:35.836Z,14.81
2022-11-02T08:41:37.335Z,15.24
2022-11-02T08:46:38.784Z,15.54
2022-11-02T08:51:43.226Z,15.69
2022-11-02T08:56:44.691Z,15.73
2022-11-02T09:01:46.330Z,15.95
2022-11-02T09:06:50.460Z,16.00
2022-11-02T09:11:52.019Z,16.19
2022-11-02T09:16:53.486Z,16.31
2022-11-02T09:21:55.005Z,16.53
2022-11-02T09:26:56.496Z,16.39
2022-11-02T09:31:57.990Z,16.38
2022-11-02T09:36:59.443Z,16.65
2022-11-02T09:42:23.860Z,16.80
2022-11-02T09:48:10.725Z,17.09
2022-11-02T09:52:58.053Z,17.86
2022-11-02T09:58:05.949Z,18.69
2022-11-02T10:03:39.044Z,19.58
2022-11-02T10:08:43.528Z,19.29
2022-11-02T10:13:56.659Z,18.04
2022-11-02T10:18:58.711Z,18.02
2022-11-02T10:24:18.733Z,19.20
2022-11-02T10:29:42.171Z,19.86
2022-11-02T10:34:54.152Z,20.73
2022-11-02T10:40:19.262Z,20.56
2022-11-02T10:45:32.944Z,19.40
2022-11-02T10:50:47.612Z,18.75
2022-11-02T10:56:01.662Z,18.05
2022-11-02T11:01:11.605Z,17.42
2022-11-02T11:06:13.210Z,17.52
2022-11-02T11:11:19.745Z,18.48
2022-11-02T11:16:32.197Z,18.79
2022-11-02T11:21:39.208Z,19.56
2022-11-02T11:26:40.663Z,21.09
2022-11-02T11:31:42.170Z,21.29
2022-11-02T11:36:43.773Z,21.03
2022-11-02T11:41:45.340Z,20.93
2022-11-02T11:46:50.772Z,20.64
2022-11-02T11:51:55.326Z,20.35
2022-11-02T11:56:59.269Z,19.99
2022-11-02T12:02:02.584Z,19.51
2022-11-02T12:07:23.685Z,19.39
2022-11-02T12:12:37.109Z,18.95
2022-11-02T12:18:03.722Z,18.46
2022-11-02T12:23:24.173Z,18.01
2022-11-02T12:28:33.189Z,18.02
2022-11-02T12:34:08.990Z,17.87
2022-11-02T12:39:42.030Z,17.97
2022-11-02T12:45:09.782Z,18.33
2022-11-02T12:50:21.461Z,18.48
2022-11-02T12:55:33.034Z,18.80
2022-11-02T13:00:42.878Z,19.16
2022-11-02T13:05:54.643Z,18.97
2022-11-02T13:11:01.519Z,18.37
2022-11-02T13:16:04.743Z,17.94
2022-11-02T13:21:06.848Z,17.73
2022-11-02T13:26:41.466Z,17.81
2022-11-02T13:31:48.712Z,18.04
2022-11-02T13:36:50.249Z,18.26
2022-11-02T13:42:11.430Z,18.14
2022-11-02T13:47:34.345Z,17.92
2022-11-02T13:52:41.524Z,17.62
2022-11-02T13:57:46.551Z,17.33
2022-11-02T14:02:50.348Z,17.15
2022-11-02T14:07:51.990Z,17.01
2022-11-02T14:12:53.507Z,16.89
2022-11-02T14:17:55.141Z,16.81
2022-11-02T14:23:12.187Z,16.74
2022-11-02T14:28:31.791Z,16.67
2022-11-02T14:33:51.758Z,16.57
2022-11-02T14:39:25.567Z,16.46
2022-11-02T14:44:53.427Z,16.37
2022-11-02T14:50:20.318Z,16.30
2022-11-02T14:55:28.348Z,16.22
2022-11-02T15:00:57.152Z,16.15
2022-11-02T15:06:10.877Z,16.11
2022-11-02T15:11:49.454Z,16.06
2022-11-02T15:16:51.039Z,16.00
2022-11-02T15:21:53.576Z,15.91
2022-11-02T15:26:59.495Z,15.83
2022-11-02T15:32:03.264Z,15.73
2022-11-02T15:37:05.614Z,15.60
2022-11-02T15:42:31.668Z,15.45
2022-11-02T15:47:52.124Z,15.28
2022-11-02T15:53:27.302Z,15.11
2022-11-02T15:58:47.409Z,14.95
2022-11-02T16:04:17.051Z,14.77
2022-11-02T16:09:31.610Z,14.55
2022-11-02T16:14:33.225Z,14.34
2022-11-02T16:19:34.792Z,14.14
2022-11-02T16:24:46.793Z,13.94
2022-11-02T16:29:50.556Z,13.73
2022-11-02T16:34:52.217Z,13.46
2022-11-02T16:39:54.141Z,13.26
2022-11-02T16:44:58.627Z,13.12
2022-11-02T16:50:00.280Z,12.98
2022-11-02T16:55:02.515Z,12.75
2022-11-02T17:00:11.402Z,12.49
2022-11-02T17:05:17.723Z,12.29
2022-11-02T17:10:24.145Z,12.19
2022-11-02T17:15:28.700Z,12.10
2022-11-02T17:20:30.182Z,12.00
2022-11-02T17:25:31.681Z,11.87
2022-11-02T17:30:33.083Z,11.76
2022-11-02T17:35:35.245Z,11.65
2022-11-02T17:40:37.818Z,11.57
2022-11-02T17:45:39.384Z,11.47
2022-11-02T17:50:41.737Z,11.34
2022-11-02T17:55:43.279Z,11.23
2022-11-02T18:00:44.893Z,11.14
2022-11-02T18:05:50.084Z,11.00
2022-11-02T18:10:53.131Z,10.91
2022-11-02T18:15:54.658Z,10.85
2022-11-02T18:20:56.568Z,10.78
2022-11-02T18:25:59.416Z,10.73
2022-11-02T18:31:01.102Z,10.63
2022-11-02T18:36:10.106Z,10.54
2022-11-02T18:41:30.813Z,10.52
2022-11-02T18:46:32.342Z,10.47
2022-11-02T18:51:33.884Z,10.41
2022-11-02T18:56:35.458Z,10.33
2022-11-02T19:01:37.290Z,10.19
2022-11-02T19:06:57.519Z,10.12
2022-11-02T19:12:04.175Z,10.12
2022-11-02T19:17:06.684Z,10.05
2022-11-02T19:22:12.015Z,9.97
2022-11-02T19:27:19.974Z,9.92
2022-11-02T19:32:21.638Z,9.85
2022-11-02T19:37:23.280Z,9.76
2022-11-02T19:42:24.788Z,9.69
2022-11-02T19:47:27.675Z,9.60
2022-11-02T19:52:29.140Z,9.54
2022-11-02T19:57:33.174Z,9.53
2022-11-02T20:02:35.054Z,9.46
2022-11-02T20:07:36.601Z,9.40
2022-11-02T20:12:38.679Z,9.34
2022-11-02T20:18:05.340Z,9.26
2022-11-02T20:23:04.310Z,9.15
2022-11-02T20:28:06.137Z,9.09
2022-11-02T20:33:08.262Z,9.06
2022-11-02T20:38:09.807Z,9.05
2022-11-02T20:43:11.280Z,9.10
2022-11-02T20:48:12.863Z,9.12
2022-11-02T20:53:14.528Z,9.10
2022-11-02T20:58:16.055Z,9.06
2022-11-02T21:03:18.005Z,8.99
2022-11-02T21:08:22.219Z,8.89
2022-11-02T21:13:42.455Z,8.81
2022-11-02T21:18:44.518Z,8.73
2022-11-02T21:23:46.457Z,8.69
2022-11-02T21:28:47.942Z,8.58
2022-11-02T21:33:50.082Z,8.53
2022-11-02T21:38:51.607Z,8.48
2022-11-02T21:43:55.447Z,8.52
2022-11-02T21:48:57.209Z,8.62
2022-11-02T21:53:58.704Z,8.67
2022-11-02T21:59:00.192Z,8.68
2022-11-02T22:04:02.106Z,8.67
2022-11-02T22:09:05.291Z,8.62
2022-11-02T22:14:06.794Z,8.54
2022-11-02T22:19:13.148Z,8.52
2022-11-02T22:24:14.648Z,8.52
2022-11-02T22:29:16.231Z,8.51
2022-11-02T22:34:17.667Z,8.51
2022-11-02T22:39:19.117Z,8.51
2022-11-02T22:44:22.129Z,8.40
2022-11-02T22:49:23.576Z,8.20
2022-11-02T22:54:25.061Z,8.03
2022-11-02T22:59:26.473Z,7.96
2022-11-02T23:04:27.910Z,7.90
2022-11-02T23:09:29.337Z,7.83
2022-11-02T23:14:30.881Z,7.86
2022-11-02T23:19:33.069Z,7.89
2022-11-02T23:24:52.947Z,7.91
2022-11-02T23:30:12.904Z,7.92
2022-11-02T23:35:35.906Z,7.92
2022-11-02T23:40:37.354Z,7.86
2022-11-02T23:45:38.813Z,7.85
2022-11-02T23:50:58.880Z,7.81
2022-11-02T23:56:19.546Z,7.77
